createdAt,value
2019-03-19T00:02:09.383Z,4.97
2019-03-19T00:04:39.705Z,5.15
2019-03-19T00:07:10.061Z,5.50
2019-03-19T00:09:40.387Z,5.08
2019-03-19T00:12:10.727Z,4.87
2019-03-19T00:14:41.044Z,5.40
2019-03-19T00:17:11.305Z,4.78
2019-03-19T00:19:41.544Z,4.60
2019-03-19T00:22:11.842Z,4.35
2019-03-19T00:24:42.103Z,4.05
2019-03-19T00:27:12.439Z,3.95
2019-03-19T00:29:42.708Z,3.55
2019-03-19T00:32:13.001Z,3.45
2019-03-19T00:34:43.262Z,3.67
2019-03-19T00:37:13.578Z,3.98
2019-03-19T00:39:43.835Z,3.70
2019-03-19T00:42:14.150Z,3.87
2019-03-19T00:44:44.411Z,4.35
2019-03-19T00:47:14.709Z,4.25
2019-03-19T00:49:44.986Z,4.55
2019-03-19T00:52:15.331Z,3.95
2019-03-19T00:54:45.593Z,4.58
2019-03-19T00:57:16.923Z,4.30
2019-03-19T00:59:47.192Z,4.33
2019-03-19T01:02:17.491Z,4.67
2019-03-19T01:04:47.800Z,4.40
2019-03-19T01:07:18.127Z,3.70
2019-03-19T01:09:48.390Z,3.60
2019-03-19T01:12:19.800Z,3.72
2019-03-19T01:14:50.074Z,3.60
2019-03-19T01:17:20.415Z,3.47
2019-03-19T01:19:50.652Z,3.10
2019-03-19T01:22:20.991Z,3.30
2019-03-19T01:24:51.254Z,7.05
2019-03-19T01:27:21.582Z,4.90
2019-03-19T01:29:51.844Z,3.47
2019-03-19T01:32:22.156Z,3.10
2019-03-19T01:34:52.430Z,3.42
2019-03-19T01:37:22.720Z,3.47
2019-03-19T01:39:53.070Z,3.20
2019-03-19T01:42:23.382Z,3.45
2019-03-19T01:44:53.638Z,3.02
2019-03-19T01:47:23.952Z,3.15
2019-03-19T01:49:54.235Z,3.25
2019-03-19T01:52:24.553Z,3.12
2019-03-19T01:54:54.816Z,3.50
2019-03-19T01:57:25.148Z,3.75
2019-03-19T01:59:55.424Z,3.42
2019-03-19T02:02:25.734Z,3.30
2019-03-19T02:04:55.993Z,3.92
2019-03-19T02:07:26.303Z,3.67
2019-03-19T02:10:02.473Z,3.70
2019-03-19T02:12:32.777Z,4.15
2019-03-19T02:15:03.064Z,3.62
2019-03-19T02:17:34.400Z,2.65
2019-03-19T02:20:07.564Z,2.92
2019-03-19T02:22:37.867Z,3.22
2019-03-19T02:25:11.006Z,3.42
2019-03-19T02:27:41.315Z,2.90
2019-03-19T02:30:13.889Z,3.33
2019-03-19T02:32:44.162Z,3.05
2019-03-19T02:35:14.613Z,3.55
2019-03-19T02:37:44.938Z,3.30
2019-03-19T02:40:17.918Z,3.37
2019-03-19T02:42:48.847Z,3.10
2019-03-19T02:45:19.131Z,3.67
2019-03-19T02:47:49.359Z,3.83
2019-03-19T02:50:19.671Z,4.12
2019-03-19T02:52:49.969Z,3.40
2019-03-19T02:55:21.259Z,3.27
2019-03-19T02:57:51.567Z,4.00
2019-03-19T03:00:21.757Z,3.35
2019-03-19T03:02:52.032Z,3.05
2019-03-19T03:05:22.422Z,3.40
2019-03-19T03:07:52.708Z,3.37
2019-03-19T03:10:22.980Z,3.12
2019-03-19T03:12:53.285Z,3.37
2019-03-19T03:15:27.809Z,3.47
2019-03-19T03:17:58.093Z,3.67
2019-03-19T03:20:28.367Z,3.30
2019-03-19T03:22:58.678Z,2.72
2019-03-19T03:25:28.959Z,3.10
2019-03-19T03:27:59.277Z,3.77
2019-03-19T03:30:29.553Z,3.35
2019-03-19T03:32:59.864Z,3.42
2019-03-19T03:35:30.116Z,3.67
2019-03-19T03:38:00.624Z,3.72
2019-03-19T03:40:30.904Z,3.58
2019-03-19T03:43:01.212Z,3.95
2019-03-19T03:45:31.473Z,3.87
2019-03-19T03:48:01.745Z,3.40
2019-03-19T03:50:32.048Z,3.70
2019-03-19T03:53:02.304Z,3.37
2019-03-19T03:55:32.609Z,3.33
2019-03-19T03:58:02.896Z,3.83
2019-03-19T04:00:33.195Z,3.47
2019-03-19T04:03:03.483Z,4.03
2019-03-19T04:05:33.782Z,4.05
2019-03-19T04:08:04.055Z,3.52
2019-03-19T04:10:34.544Z,3.70
2019-03-19T04:13:05.012Z,3.87
2019-03-19T04:15:37.094Z,4.67
2019-03-19T04:18:07.385Z,4.87
2019-03-19T04:20:37.726Z,5.37
2019-03-19T04:23:08.011Z,4.70
2019-03-19T04:25:38.348Z,5.70
2019-03-19T04:28:08.645Z,5.10
2019-03-19T04:30:38.995Z,4.53
2019-03-19T04:33:09.291Z,4.35
2019-03-19T04:35:42.097Z,4.10
2019-03-19T04:38:11.567Z,4.22
2019-03-19T04:40:41.887Z,4.62
2019-03-19T04:43:12.107Z,3.92
2019-03-19T04:45:42.418Z,3.40
2019-03-19T04:48:12.729Z,4.35
2019-03-19T04:50:43.069Z,4.90
2019-03-19T04:53:13.468Z,8.45
2019-03-19T04:55:43.811Z,5.70
2019-03-19T04:58:14.097Z,5.20
2019-03-19T05:00:44.451Z,38.85
2019-03-19T05:03:14.747Z,10.70
2019-03-19T05:05:45.101Z,9.58
2019-03-19T05:08:15.480Z,8.48
2019-03-19T05:10:45.826Z,9.93
2019-03-19T05:13:16.230Z,11.00
2019-03-19T05:15:48.344Z,11.75
2019-03-19T05:18:18.603Z,9.13
2019-03-19T05:20:48.996Z,9.58
2019-03-19T05:23:19.280Z,6.75
2019-03-19T05:25:50.621Z,7.22
2019-03-19T05:28:20.909Z,5.42
2019-03-19T05:30:51.276Z,5.42
2019-03-19T05:33:21.554Z,6.00
2019-03-19T05:35:51.895Z,4.70
2019-03-19T05:38:22.106Z,5.12
2019-03-19T05:40:52.462Z,4.55
2019-03-19T05:43:22.716Z,4.40
2019-03-19T05:45:54.076Z,4.90
2019-03-19T05:48:24.444Z,6.15
2019-03-19T05:50:54.770Z,6.70
2019-03-19T05:53:28.641Z,5.42
2019-03-19T05:55:58.977Z,6.50
2019-03-19T05:58:32.392Z,6.15
2019-03-19T06:01:02.727Z,5.85
2019-03-19T06:03:53.251Z,5.80
2019-03-19T06:06:23.513Z,8.70
2019-03-19T06:08:53.973Z,10.35
2019-03-19T06:11:24.329Z,6.90
2019-03-19T06:13:54.579Z,6.58
2019-03-19T06:16:25.877Z,7.37
2019-03-19T06:18:56.067Z,5.37
2019-03-19T06:21:26.387Z,5.40
2019-03-19T06:23:58.177Z,5.37
2019-03-19T06:26:28.423Z,5.58
2019-03-19T06:28:58.691Z,5.42
2019-03-19T06:31:29.059Z,5.08
2019-03-19T06:33:59.325Z,5.72
2019-03-19T06:36:29.641Z,4.90
2019-03-19T06:38:59.909Z,5.17
2019-03-19T06:41:30.254Z,6.55
2019-03-19T06:44:00.525Z,4.65
2019-03-19T06:46:30.851Z,5.72
2019-03-19T06:49:01.107Z,6.60
2019-03-19T06:51:31.427Z,8.13
2019-03-19T06:54:01.690Z,7.37
2019-03-19T06:56:32.027Z,6.08
2019-03-19T06:59:02.335Z,6.97
2019-03-19T07:01:33.799Z,6.35
2019-03-19T07:04:04.122Z,6.62
2019-03-19T07:06:34.463Z,6.10
2019-03-19T07:09:07.366Z,6.62
2019-03-19T07:11:37.608Z,5.72
2019-03-19T07:14:07.912Z,5.37
2019-03-19T07:16:39.245Z,5.35
2019-03-19T07:19:09.621Z,6.60
2019-03-19T07:21:39.904Z,5.78
2019-03-19T07:24:10.096Z,5.58
2019-03-19T07:26:40.385Z,5.20
2019-03-19T07:29:10.634Z,4.75
2019-03-19T07:31:40.933Z,6.83
2019-03-19T07:34:11.563Z,5.62
2019-03-19T07:36:41.799Z,4.42
2019-03-19T07:39:12.044Z,3.90
2019-03-19T07:41:42.927Z,4.83
2019-03-19T07:44:13.169Z,3.60
2019-03-19T07:46:45.917Z,4.87
2019-03-19T07:49:16.513Z,4.70
2019-03-19T07:51:46.798Z,4.03
2019-03-19T07:54:17.497Z,4.92
2019-03-19T07:56:47.715Z,3.50
2019-03-19T07:59:17.907Z,3.98
2019-03-19T08:01:48.187Z,3.27
2019-03-19T08:04:18.447Z,3.33
2019-03-19T08:06:48.801Z,3.15
2019-03-19T08:09:19.010Z,3.33
2019-03-19T08:11:49.279Z,3.45
2019-03-19T08:14:19.539Z,3.52
2019-03-19T08:16:49.789Z,2.87
2019-03-19T08:19:20.055Z,3.00
2019-03-19T08:21:50.333Z,2.90
2019-03-19T08:24:20.624Z,2.90
2019-03-19T08:26:50.847Z,2.00
2019-03-19T08:29:21.101Z,2.90
2019-03-19T08:31:52.560Z,4.35
2019-03-19T08:34:22.979Z,3.85
2019-03-19T08:36:53.279Z,2.27
2019-03-19T08:39:23.571Z,2.52
2019-03-19T08:41:53.863Z,2.47
2019-03-19T08:44:27.975Z,3.17
2019-03-19T08:46:57.070Z,3.05
2019-03-19T08:49:27.304Z,3.00
2019-03-19T08:51:57.595Z,2.80
2019-03-19T08:54:27.844Z,2.58
2019-03-19T08:56:58.108Z,3.85
2019-03-19T08:59:28.372Z,3.08
2019-03-19T09:01:58.709Z,3.50
2019-03-19T09:04:28.984Z,3.47
2019-03-19T09:06:59.244Z,3.55
2019-03-19T09:09:29.514Z,2.87
2019-03-19T09:11:59.768Z,2.55
2019-03-19T09:14:29.973Z,2.47
2019-03-19T09:17:00.240Z,2.52
2019-03-19T09:19:30.540Z,3.65
2019-03-19T09:22:00.789Z,3.08
2019-03-19T09:24:31.082Z,3.02
2019-03-19T09:27:01.352Z,2.80
2019-03-19T09:29:31.556Z,2.65
2019-03-19T09:32:01.821Z,2.55
2019-03-19T09:34:32.028Z,2.55
2019-03-19T09:37:02.212Z,3.22
2019-03-19T09:39:32.548Z,3.40
2019-03-19T09:42:02.801Z,3.20
2019-03-19T09:44:33.092Z,3.42
2019-03-19T09:47:03.352Z,4.12
2019-03-19T09:49:33.608Z,3.17
2019-03-19T09:52:03.866Z,3.60
2019-03-19T09:54:34.152Z,3.67
2019-03-19T09:57:05.123Z,3.17
2019-03-19T09:59:44.515Z,2.37
2019-03-19T10:02:14.411Z,3.27
2019-03-19T10:04:44.624Z,2.40
2019-03-19T10:07:14.879Z,3.75
2019-03-19T10:09:45.169Z,2.85
2019-03-19T10:12:15.450Z,3.55
2019-03-19T10:14:45.874Z,2.42
2019-03-19T10:17:16.144Z,2.70
2019-03-19T10:19:46.400Z,2.92
2019-03-19T10:22:17.334Z,2.22
2019-03-19T10:24:47.688Z,2.50
2019-03-19T10:27:19.692Z,3.17
2019-03-19T10:29:50.204Z,2.42
2019-03-19T10:32:20.468Z,3.35
2019-03-19T10:34:51.564Z,3.40
2019-03-19T10:37:21.770Z,3.52
2019-03-19T10:39:52.105Z,4.75
2019-03-19T10:42:22.418Z,4.20
2019-03-19T10:44:52.764Z,3.12
2019-03-19T10:47:23.521Z,3.80
2019-03-19T10:49:53.824Z,3.55
2019-03-19T10:52:25.135Z,3.22
2019-03-19T10:54:56.661Z,2.87
2019-03-19T10:57:26.949Z,2.80
2019-03-19T11:00:03.250Z,3.20
2019-03-19T11:02:35.322Z,2.40
2019-03-19T11:05:08.605Z,2.87
2019-03-19T11:07:38.858Z,3.22
2019-03-19T11:10:14.527Z,2.98
2019-03-19T11:12:45.741Z,2.87
2019-03-19T11:15:25.123Z,2.80
2019-03-19T11:17:55.423Z,2.62
2019-03-19T11:20:25.713Z,2.92
2019-03-19T11:22:55.895Z,2.80
2019-03-19T11:25:28.403Z,3.20
2019-03-19T11:27:59.697Z,3.47
2019-03-19T11:30:32.035Z,2.70
2019-03-19T11:33:02.468Z,3.30
2019-03-19T11:35:32.788Z,2.47
2019-03-19T11:38:03.006Z,2.60
2019-03-19T11:40:33.349Z,2.83
2019-03-19T11:43:03.540Z,2.52
2019-03-19T11:45:33.898Z,3.00
2019-03-19T11:48:04.366Z,2.35
2019-03-19T11:50:34.681Z,2.85
2019-03-19T11:53:05.175Z,2.45
2019-03-19T11:55:35.433Z,2.35
2019-03-19T11:58:06.193Z,2.80
2019-03-19T12:00:38.088Z,2.75
2019-03-19T12:03:15.224Z,2.90
2019-03-19T12:05:40.238Z,3.08
2019-03-19T12:08:10.415Z,2.58
2019-03-19T12:10:40.754Z,2.95
2019-03-19T12:13:11.042Z,2.95
2019-03-19T12:15:41.845Z,3.30
2019-03-19T12:18:12.130Z,2.87
2019-03-19T12:20:42.413Z,3.37
2019-03-19T12:23:12.682Z,2.75
2019-03-19T12:25:42.983Z,2.83
2019-03-19T12:28:13.223Z,2.40
2019-03-19T12:30:43.526Z,2.25
2019-03-19T12:33:13.693Z,2.75
2019-03-19T12:35:44.033Z,2.52
2019-03-19T12:38:14.263Z,3.70
2019-03-19T12:40:44.476Z,2.60
2019-03-19T12:43:14.660Z,2.50
2019-03-19T12:45:44.873Z,2.10
2019-03-19T12:48:15.069Z,2.30
2019-03-19T12:50:45.350Z,2.75
2019-03-19T12:53:16.050Z,2.92
2019-03-19T12:55:46.303Z,2.40
2019-03-19T12:58:16.494Z,3.40
2019-03-19T13:00:46.784Z,2.10
2019-03-19T13:03:17.033Z,2.27
2019-03-19T13:05:47.375Z,1.98
2019-03-19T13:08:17.561Z,2.65
2019-03-19T13:10:48.903Z,2.30
2019-03-19T13:13:19.195Z,2.00
2019-03-19T13:15:49.395Z,1.90
2019-03-19T13:18:19.643Z,2.37
2019-03-19T13:20:49.904Z,2.42
2019-03-19T13:23:20.175Z,2.10
2019-03-19T13:25:50.437Z,2.52
2019-03-19T13:28:20.737Z,1.95
2019-03-19T13:30:50.915Z,2.42
2019-03-19T13:33:21.138Z,2.27
2019-03-19T13:35:51.419Z,2.40
2019-03-19T13:38:21.685Z,2.83
2019-03-19T13:40:52.227Z,2.22
2019-03-19T13:43:22.517Z,2.62
2019-03-19T13:45:52.723Z,3.15
2019-03-19T13:48:22.935Z,2.67
2019-03-19T13:50:53.203Z,2.92
2019-03-19T13:53:23.563Z,2.12
2019-03-19T13:55:53.866Z,2.60
2019-03-19T13:58:24.149Z,2.90
2019-03-19T14:00:55.807Z,2.20
2019-03-19T14:03:26.323Z,2.25
2019-03-19T14:05:57.172Z,2.20
2019-03-19T14:08:27.389Z,2.27
2019-03-19T14:10:57.688Z,2.72
2019-03-19T14:13:27.971Z,3.00
2019-03-19T14:15:58.192Z,2.55
2019-03-19T14:18:29.047Z,3.05
2019-03-19T14:20:59.288Z,2.58
2019-03-19T14:23:29.589Z,2.85
2019-03-19T14:25:59.844Z,3.47
2019-03-19T14:28:30.068Z,3.42
2019-03-19T14:31:08.669Z,2.87
2019-03-19T14:33:32.180Z,2.40
2019-03-19T14:36:02.440Z,3.10
2019-03-19T14:38:32.940Z,3.42
2019-03-19T14:41:03.202Z,3.25
2019-03-19T14:43:33.465Z,3.10
2019-03-19T14:46:03.770Z,3.10
2019-03-19T14:48:34.069Z,3.17
2019-03-19T14:51:04.342Z,3.25
2019-03-19T14:53:34.630Z,5.15
2019-03-19T14:56:04.819Z,3.22
2019-03-19T14:58:36.062Z,3.33
2019-03-19T15:01:06.355Z,2.83
2019-03-19T15:03:37.600Z,3.25
2019-03-19T15:06:07.840Z,3.05
2019-03-19T15:08:38.131Z,2.85
2019-03-19T15:11:08.315Z,2.67
2019-03-19T15:13:38.625Z,2.30
2019-03-19T15:16:09.025Z,2.77
2019-03-19T15:18:40.306Z,2.80
2019-03-19T15:21:10.492Z,2.92
2019-03-19T15:23:40.787Z,2.60
2019-03-19T15:26:10.981Z,2.30
2019-03-19T15:28:41.273Z,2.85
2019-03-19T15:31:11.549Z,3.17
2019-03-19T15:33:41.836Z,3.92
2019-03-19T15:36:12.093Z,3.33
2019-03-19T15:38:42.390Z,2.58
2019-03-19T15:41:12.661Z,3.30
2019-03-19T15:43:43.009Z,2.85
2019-03-19T15:46:13.212Z,3.37
2019-03-19T15:48:43.513Z,3.20
2019-03-19T15:51:13.782Z,3.62
2019-03-19T15:53:44.143Z,4.50
2019-03-19T15:56:14.413Z,3.17
2019-03-19T15:58:44.739Z,3.17
2019-03-19T16:01:16.981Z,3.95
2019-03-19T16:03:46.877Z,4.10
2019-03-19T16:06:17.140Z,4.42
2019-03-19T16:08:47.447Z,4.33
2019-03-19T16:11:17.717Z,4.50
2019-03-19T16:13:48.698Z,3.70
2019-03-19T16:16:18.978Z,3.58
2019-03-19T16:18:49.275Z,5.10
2019-03-19T16:21:19.572Z,4.62
2019-03-19T16:23:49.824Z,4.97
2019-03-19T16:26:30.889Z,5.12
2019-03-19T16:29:01.120Z,5.00
2019-03-19T16:31:31.393Z,5.28
2019-03-19T16:34:01.655Z,5.35
2019-03-19T16:36:31.986Z,6.00
2019-03-19T16:39:02.259Z,5.35
2019-03-19T16:41:32.699Z,4.90
2019-03-19T16:44:02.987Z,4.37
2019-03-19T16:46:37.226Z,4.25
2019-03-19T16:49:07.507Z,4.50
2019-03-19T16:51:37.772Z,4.28
2019-03-19T16:54:08.060Z,5.42
2019-03-19T16:56:38.336Z,5.50
2019-03-19T16:59:08.634Z,5.72
2019-03-19T17:01:38.916Z,5.47
2019-03-19T17:04:09.216Z,6.33
2019-03-19T17:06:39.454Z,7.08
2019-03-19T17:09:09.730Z,6.92
2019-03-19T17:11:39.989Z,7.87
2019-03-19T17:14:10.209Z,8.35
2019-03-19T17:16:40.500Z,6.47
2019-03-19T17:19:10.790Z,7.65
2019-03-19T17:21:41.062Z,7.97
2019-03-19T17:24:11.344Z,7.53
2019-03-19T17:26:42.108Z,6.95
2019-03-19T17:29:12.332Z,7.62
2019-03-19T17:31:43.200Z,8.90
2019-03-19T17:34:13.346Z,9.70
2019-03-19T17:36:43.676Z,11.75
2019-03-19T17:39:13.946Z,12.60
2019-03-19T17:41:44.298Z,15.60
2019-03-19T17:44:14.601Z,18.50
2019-03-19T17:46:44.832Z,19.32
2019-03-19T17:49:15.259Z,17.90
2019-03-19T17:51:46.729Z,16.10
2019-03-19T17:54:17.019Z,17.07
2019-03-19T17:56:46.483Z,21.37
2019-03-19T17:59:16.818Z,24.02
2019-03-19T18:01:47.085Z,23.83
2019-03-19T18:04:17.505Z,22.13
2019-03-19T18:06:47.773Z,20.20
2019-03-19T18:09:18.080Z,20.15
2019-03-19T18:11:48.329Z,19.57
2019-03-19T18:14:18.612Z,21.25
2019-03-19T18:16:50.733Z,22.22
2019-03-19T18:19:20.962Z,21.87
2019-03-19T18:21:51.277Z,27.40
2019-03-19T18:24:22.956Z,29.85
2019-03-19T18:26:53.572Z,31.02
2019-03-19T18:29:23.847Z,31.30
2019-03-19T18:31:54.627Z,30.97
2019-03-19T18:34:24.825Z,29.25
2019-03-19T18:36:55.167Z,30.25
2019-03-19T18:39:25.443Z,33.67
2019-03-19T18:41:55.743Z,32.78
2019-03-19T18:44:26.002Z,30.10
2019-03-19T18:46:56.326Z,28.70
2019-03-19T18:49:26.587Z,28.77
2019-03-19T18:51:56.885Z,29.05
2019-03-19T18:54:27.195Z,34.43
2019-03-19T18:56:57.976Z,36.45
2019-03-19T18:59:28.270Z,38.13
2019-03-19T19:01:58.612Z,34.00
2019-03-19T19:04:28.911Z,29.35
2019-03-19T19:06:59.146Z,29.48
2019-03-19T19:09:29.404Z,29.45
2019-03-19T19:11:59.707Z,31.12
2019-03-19T19:14:29.976Z,26.33
2019-03-19T19:17:01.901Z,24.63
2019-03-19T19:19:33.168Z,26.60
2019-03-19T19:22:03.431Z,30.72
2019-03-19T19:24:33.704Z,30.68
2019-03-19T19:27:04.035Z,28.70
2019-03-19T19:29:34.260Z,30.40
2019-03-19T19:32:04.595Z,32.88
2019-03-19T19:34:34.877Z,30.70
2019-03-19T19:37:05.232Z,32.63
2019-03-19T19:39:36.592Z,34.92
2019-03-19T19:42:06.935Z,37.20
2019-03-19T19:44:37.192Z,36.08
2019-03-19T19:47:07.532Z,34.10
2019-03-19T19:49:37.792Z,32.75
2019-03-19T19:52:08.132Z,31.57
2019-03-19T19:54:38.327Z,32.15
2019-03-19T19:57:08.680Z,30.97
2019-03-19T19:59:38.970Z,47.13
2019-03-19T20:02:09.285Z,48.45
2019-03-19T20:04:39.564Z,42.93
2019-03-19T20:07:09.921Z,36.20
2019-03-19T20:09:40.187Z,36.45
2019-03-19T20:12:14.046Z,34.23
2019-03-19T20:14:48.295Z,34.98
2019-03-19T20:17:18.996Z,35.10
2019-03-19T20:19:49.261Z,33.28
2019-03-19T20:22:19.536Z,37.20
2019-03-19T20:24:49.830Z,42.38
2019-03-19T20:27:20.029Z,43.38
2019-03-19T20:29:50.293Z,54.45
2019-03-19T20:32:20.609Z,50.30
2019-03-19T20:34:50.916Z,48.52
2019-03-19T20:37:21.324Z,50.28
2019-03-19T20:39:51.518Z,48.63
2019-03-19T20:42:21.762Z,55.33
2019-03-19T20:44:52.052Z,69.67
2019-03-19T20:47:22.360Z,58.92
2019-03-19T20:49:52.572Z,53.40
2019-03-19T20:52:22.882Z,50.00
2019-03-19T20:54:53.148Z,56.92
2019-03-19T20:57:23.810Z,60.58
2019-03-19T20:59:55.072Z,52.03
2019-03-19T21:02:25.298Z,48.13
2019-03-19T21:04:55.569Z,48.05
2019-03-19T21:07:25.886Z,42.75
2019-03-19T21:09:56.098Z,39.18
2019-03-19T21:12:28.875Z,38.90
2019-03-19T21:14:59.882Z,40.37
2019-03-19T21:17:30.419Z,41.37
2019-03-19T21:20:00.683Z,43.55
2019-03-19T21:22:31.866Z,43.95
2019-03-19T21:25:02.170Z,43.73
2019-03-19T21:27:33.707Z,35.85
2019-03-19T21:30:07.977Z,29.57
2019-03-19T21:32:38.399Z,30.27
2019-03-19T21:35:09.002Z,27.58
2019-03-19T21:37:39.450Z,30.20
2019-03-19T21:40:14.163Z,28.70
2019-03-19T21:42:44.633Z,28.52
2019-03-19T21:45:16.499Z,30.48
2019-03-19T21:47:47.475Z,33.13
2019-03-19T21:50:19.163Z,31.52
2019-03-19T21:52:49.451Z,33.02
2019-03-19T21:55:19.749Z,33.63
2019-03-19T21:57:49.937Z,35.78
2019-03-19T22:00:24.094Z,36.98
2019-03-19T22:02:54.420Z,36.10
2019-03-19T22:05:24.676Z,36.68
2019-03-19T22:07:55.574Z,36.90
2019-03-19T22:10:25.856Z,38.50
2019-03-19T22:12:56.231Z,38.73
2019-03-19T22:15:28.616Z,39.42
2019-03-19T22:17:58.888Z,38.25
2019-03-19T22:20:29.676Z,37.50
2019-03-19T22:22:59.898Z,37.63
2019-03-19T22:25:30.320Z,36.98
2019-03-19T22:28:00.721Z,39.60
2019-03-19T22:30:31.069Z,41.50
2019-03-19T22:33:01.327Z,41.88
2019-03-19T22:35:31.601Z,43.90
2019-03-19T22:38:01.873Z,42.80
2019-03-19T22:40:32.216Z,41.63
2019-03-19T22:43:02.488Z,39.58
2019-03-19T22:45:32.762Z,39.48
2019-03-19T22:48:02.981Z,40.92
2019-03-19T22:50:33.319Z,41.08
2019-03-19T22:53:03.615Z,41.50
2019-03-19T22:55:33.958Z,43.35
2019-03-19T22:58:04.205Z,46.08
2019-03-19T23:00:39.672Z,50.48
2019-03-19T23:03:11.236Z,47.83
2019-03-19T23:05:41.595Z,49.73
2019-03-19T23:08:11.969Z,49.83
2019-03-19T23:10:43.435Z,49.27
2019-03-19T23:13:14.621Z,45.98
2019-03-19T23:15:44.899Z,45.73
2019-03-19T23:18:15.630Z,45.05
2019-03-19T23:20:46.467Z,43.30
2019-03-19T23:23:16.886Z,42.90
2019-03-19T23:25:47.164Z,42.67
2019-03-19T23:28:17.520Z,43.28
2019-03-19T23:30:47.715Z,42.45
2019-03-19T23:33:18.130Z,45.03
2019-03-19T23:35:48.414Z,47.73
2019-03-19T23:38:18.760Z,51.60
2019-03-19T23:40:49.040Z,51.68
2019-03-19T23:43:19.422Z,52.33
2019-03-19T23:45:49.798Z,53.73
2019-03-19T23:48:20.210Z,61.98
2019-03-19T23:50:50.500Z,66.22
2019-03-19T23:53:21.962Z,65.12
2019-03-19T23:55:52.248Z,77.60
2019-03-19T23:58:22.615Z,65.40
